<?xml version="1.0" encoding="UTF-8" standalone="no" ?>
<gpx xmlns="http://www.topografix.com/GPX/1/1" xmlns:xsi="http://www.w3.org/2001/XMLSchema-instance" xsi:schemaLocation="http://www.topografix.com/GPX/1/1 http://www.topografix.com/GPX/1/1/gpx.xsd" version="1.1" creator="VisuGPX - https://www.visugpx.com">
  <metadata>
    <name>Rando AN-Ath Vosges 02_08_2016 Jean-Luc</name>
    <desc><![CDATA[Les Vosges 2016
Rando du 02/12/2016 guide Jean-Luc]]></desc>
  </metadata>
  <trk>
    <name><![CDATA[Tracé actuel: 12 FEV 2016 08:57]]></name>
    <trkseg>
      <trkpt lat="47.79738" lon="6.95822">
        <ele>452.75</ele>
        <time>2016-02-12T07:57:10.000Z</time>
      </trkpt>
      <trkpt lat="47.79752" lon="6.95824">
        <ele>452.79</ele>
        <time>2016-02-12T07:59:59.000Z</time>
      </trkpt>
      <trkpt lat="47.79754" lon="6.95758">
        <ele>454.02</ele>
        <time>2016-02-12T08:02:01.000Z</time>
      </trkpt>
      <trkpt lat="47.7973" lon="6.95666">
        <ele>457.15</ele>
        <time>2016-02-12T08:02:55.000Z</time>
      </trkpt>
      <trkpt lat="47.79646" lon="6.9544">
        <ele>463.79</ele>
        <time>2016-02-12T08:05:08.000Z</time>
      </trkpt>
      <trkpt lat="47.79634" lon="6.95399">
        <ele>463.79</ele>
        <time>2016-02-12T08:05:39.000Z</time>
      </trkpt>
      <trkpt lat="47.79609" lon="6.9542">
        <ele>463.79</ele>
        <time>2016-02-12T08:06:13.000Z</time>
      </trkpt>
      <trkpt lat="47.79567" lon="6.95505">
        <ele>463.79</ele>
        <time>2016-02-12T08:07:07.000Z</time>
      </trkpt>
      <trkpt lat="47.79549" lon="6.95507">
        <ele>463.28</ele>
        <time>2016-02-12T08:07:22.000Z</time>
      </trkpt>
      <trkpt lat="47.79535" lon="6.95499">
        <ele>462.66</ele>
        <time>2016-02-12T08:07:45.000Z</time>
      </trkpt>
      <trkpt lat="47.7951" lon="6.95498">
        <ele>462.69</ele>
        <time>2016-02-12T08:08:04.000Z</time>
      </trkpt>
      <trkpt lat="47.7949" lon="6.95448">
        <ele>462.69</ele>
        <time>2016-02-12T08:08:29.000Z</time>
      </trkpt>
      <trkpt lat="47.7941" lon="6.95307">
        <ele>465.18</ele>
        <time>2016-02-12T08:09:59.000Z</time>
      </trkpt>
      <trkpt lat="47.79395" lon="6.95303">
        <ele>466.25</ele>
        <time>2016-02-12T08:10:14.000Z</time>
      </trkpt>
      <trkpt lat="47.79384" lon="6.95321">
        <ele>467.81</ele>
        <time>2016-02-12T08:10:28.000Z</time>
      </trkpt>
      <trkpt lat="47.79377" lon="6.95349">
        <ele>470</ele>
        <time>2016-02-12T08:10:46.000Z</time>
      </trkpt>
      <trkpt lat="47.79366" lon="6.95368">
        <ele>471.97</ele>
        <time>2016-02-12T08:11:01.000Z</time>
      </trkpt>
      <trkpt lat="47.79337" lon="6.95393">
        <ele>476.02</ele>
        <time>2016-02-12T08:11:32.000Z</time>
      </trkpt>
      <trkpt lat="47.79313" lon="6.95421">
        <ele>480.25</ele>
        <time>2016-02-12T08:12:01.000Z</time>
      </trkpt>
      <trkpt lat="47.79302" lon="6.95432">
        <ele>481.82</ele>
        <time>2016-02-12T08:12:15.000Z</time>
      </trkpt>
      <trkpt lat="47.79282" lon="6.95426">
        <ele>483.22</ele>
        <time>2016-02-12T08:12:33.000Z</time>
      </trkpt>
      <trkpt lat="47.79271" lon="6.9541">
        <ele>484.39</ele>
        <time>2016-02-12T08:12:43.000Z</time>
      </trkpt>
      <trkpt lat="47.79279" lon="6.95395">
        <ele>486.6</ele>
        <time>2016-02-12T08:13:00.000Z</time>
      </trkpt>
      <trkpt lat="47.79297" lon="6.95376">
        <ele>489.61</ele>
        <time>2016-02-12T08:13:21.000Z</time>
      </trkpt>
      <trkpt lat="47.7931" lon="6.95361">
        <ele>491.88</ele>
        <time>2016-02-12T08:13:38.000Z</time>
      </trkpt>
      <trkpt lat="47.79322" lon="6.95338">
        <ele>494.03</ele>
        <time>2016-02-12T08:13:54.000Z</time>
      </trkpt>
      <trkpt lat="47.79325" lon="6.95315">
        <ele>495.57</ele>
        <time>2016-02-12T08:14:07.000Z</time>
      </trkpt>
      <trkpt lat="47.79308" lon="6.95318">
        <ele>498.12</ele>
        <time>2016-02-12T08:14:29.000Z</time>
      </trkpt>
      <trkpt lat="47.79298" lon="6.95336">
        <ele>500.08</ele>
        <time>2016-02-12T08:14:45.000Z</time>
      </trkpt>
      <trkpt lat="47.79281" lon="6.95343">
        <ele>502.33</ele>
        <time>2016-02-12T08:15:04.000Z</time>
      </trkpt>
      <trkpt lat="47.79267" lon="6.95343">
        <ele>505.4</ele>
        <time>2016-02-12T08:15:24.000Z</time>
      </trkpt>
      <trkpt lat="47.79222" lon="6.95299">
        <ele>517.7</ele>
        <time>2016-02-12T08:16:33.000Z</time>
      </trkpt>
      <trkpt lat="47.79194" lon="6.95286">
        <ele>523.91</ele>
        <time>2016-02-12T08:17:15.000Z</time>
      </trkpt>
      <trkpt lat="47.79171" lon="6.95275">
        <ele>530.01</ele>
        <time>2016-02-12T08:17:53.000Z</time>
      </trkpt>
      <trkpt lat="47.7916" lon="6.95283">
        <ele>531.41</ele>
        <time>2016-02-12T08:18:13.000Z</time>
      </trkpt>
      <trkpt lat="47.79145" lon="6.95301">
        <ele>537.07</ele>
        <time>2016-02-12T08:18:48.000Z</time>
      </trkpt>
      <trkpt lat="47.79132" lon="6.95311">
        <ele>540.16</ele>
        <time>2016-02-12T08:19:06.000Z</time>
      </trkpt>
      <trkpt lat="47.79116" lon="6.95322">
        <ele>545.54</ele>
        <time>2016-02-12T08:19:40.000Z</time>
      </trkpt>
      <trkpt lat="47.79107" lon="6.95348">
        <ele>547.01</ele>
        <time>2016-02-12T08:20:01.000Z</time>
      </trkpt>
      <trkpt lat="47.79091" lon="6.95364">
        <ele>549.04</ele>
        <time>2016-02-12T08:20:32.000Z</time>
      </trkpt>
      <trkpt lat="47.79059" lon="6.95428">
        <ele>552</ele>
        <time>2016-02-12T08:21:27.000Z</time>
      </trkpt>
      <trkpt lat="47.79047" lon="6.95441">
        <ele>553.34</ele>
        <time>2016-02-12T08:21:42.000Z</time>
      </trkpt>
      <trkpt lat="47.79035" lon="6.9547">
        <ele>553.78</ele>
        <time>2016-02-12T08:21:57.000Z</time>
      </trkpt>
      <trkpt lat="47.78988" lon="6.95512">
        <ele>554.26</ele>
        <time>2016-02-12T08:22:36.000Z</time>
      </trkpt>
      <trkpt lat="47.78962" lon="6.95504">
        <ele>555.66</ele>
        <time>2016-02-12T08:23:08.000Z</time>
      </trkpt>
      <trkpt lat="47.78936" lon="6.95514">
        <ele>557.47</ele>
        <time>2016-02-12T08:23:30.000Z</time>
      </trkpt>
      <trkpt lat="47.78907" lon="6.95541">
        <ele>559.71</ele>
        <time>2016-02-12T08:24:04.000Z</time>
      </trkpt>
      <trkpt lat="47.78839" lon="6.95542">
        <ele>563.13</ele>
        <time>2016-02-12T08:25:12.000Z</time>
      </trkpt>
      <trkpt lat="47.78752" lon="6.9547">
        <ele>568.43</ele>
        <time>2016-02-12T08:26:47.000Z</time>
      </trkpt>
      <trkpt lat="47.7871" lon="6.95426">
        <ele>570.43</ele>
        <time>2016-02-12T08:27:31.000Z</time>
      </trkpt>
      <trkpt lat="47.78699" lon="6.95391">
        <ele>575.58</ele>
        <time>2016-02-12T08:28:04.000Z</time>
      </trkpt>
      <trkpt lat="47.78606" lon="6.9543">
        <ele>577.71</ele>
        <time>2016-02-12T08:29:34.000Z</time>
      </trkpt>
      <trkpt lat="47.78583" lon="6.95422">
        <ele>589.66</ele>
        <time>2016-02-12T08:30:39.000Z</time>
      </trkpt>
      <trkpt lat="47.78556" lon="6.95435">
        <ele>597.98</ele>
        <time>2016-02-12T08:31:25.000Z</time>
      </trkpt>
      <trkpt lat="47.78531" lon="6.95457">
        <ele>601.29</ele>
        <time>2016-02-12T08:31:44.000Z</time>
      </trkpt>
      <trkpt lat="47.78509" lon="6.95482">
        <ele>605.65</ele>
        <time>2016-02-12T08:32:10.000Z</time>
      </trkpt>
      <trkpt lat="47.78501" lon="6.95468">
        <ele>609</ele>
        <time>2016-02-12T08:32:33.000Z</time>
      </trkpt>
      <trkpt lat="47.78495" lon="6.95455">
        <ele>611.55</ele>
        <time>2016-02-12T08:32:52.000Z</time>
      </trkpt>
      <trkpt lat="47.78482" lon="6.95427">
        <ele>619.17</ele>
        <time>2016-02-12T08:33:33.000Z</time>
      </trkpt>
      <trkpt lat="47.78478" lon="6.95413">
        <ele>622.17</ele>
        <time>2016-02-12T08:33:52.000Z</time>
      </trkpt>
      <trkpt lat="47.78468" lon="6.95386">
        <ele>628.48</ele>
        <time>2016-02-12T08:34:30.000Z</time>
      </trkpt>
      <trkpt lat="47.78464" lon="6.95362">
        <ele>631.53</ele>
        <time>2016-02-12T08:34:53.000Z</time>
      </trkpt>
      <trkpt lat="47.78463" lon="6.9534">
        <ele>634.62</ele>
        <time>2016-02-12T08:35:11.000Z</time>
      </trkpt>
      <trkpt lat="47.78463" lon="6.95321">
        <ele>637.69</ele>
        <time>2016-02-12T08:35:33.000Z</time>
      </trkpt>
      <trkpt lat="47.78464" lon="6.95311">
        <ele>640.72</ele>
        <time>2016-02-12T08:35:48.000Z</time>
      </trkpt>
      <trkpt lat="47.78466" lon="6.95284">
        <ele>646.36</ele>
        <time>2016-02-12T08:36:22.000Z</time>
      </trkpt>
      <trkpt lat="47.78467" lon="6.95269">
        <ele>649.41</ele>
        <time>2016-02-12T08:36:39.000Z</time>
      </trkpt>
      <trkpt lat="47.78471" lon="6.95246">
        <ele>652.43</ele>
        <time>2016-02-12T08:36:59.000Z</time>
      </trkpt>
      <trkpt lat="47.78471" lon="6.95222">
        <ele>655.46</ele>
        <time>2016-02-12T08:37:20.000Z</time>
      </trkpt>
      <trkpt lat="47.78479" lon="6.95199">
        <ele>661.3</ele>
        <time>2016-02-12T08:37:55.000Z</time>
      </trkpt>
      <trkpt lat="47.78483" lon="6.9518">
        <ele>667.22</ele>
        <time>2016-02-12T08:38:27.000Z</time>
      </trkpt>
      <trkpt lat="47.78487" lon="6.95164">
        <ele>672.43</ele>
        <time>2016-02-12T08:38:55.000Z</time>
      </trkpt>
      <trkpt lat="47.78485" lon="6.95145">
        <ele>675.49</ele>
        <time>2016-02-12T08:39:15.000Z</time>
      </trkpt>
      <trkpt lat="47.78482" lon="6.95094">
        <ele>678.96</ele>
        <time>2016-02-12T08:39:50.000Z</time>
      </trkpt>
      <trkpt lat="47.78474" lon="6.95063">
        <ele>680.87</ele>
        <time>2016-02-12T08:40:11.000Z</time>
      </trkpt>
      <trkpt lat="47.78467" lon="6.95012">
        <ele>684.46</ele>
        <time>2016-02-12T08:40:50.000Z</time>
      </trkpt>
      <trkpt lat="47.78465" lon="6.94997">
        <ele>685.7</ele>
        <time>2016-02-12T08:41:02.000Z</time>
      </trkpt>
      <trkpt lat="47.78454" lon="6.94954">
        <ele>688.91</ele>
        <time>2016-02-12T08:41:38.000Z</time>
      </trkpt>
      <trkpt lat="47.78439" lon="6.94921">
        <ele>692.73</ele>
        <time>2016-02-12T08:42:25.000Z</time>
      </trkpt>
      <trkpt lat="47.78414" lon="6.94889">
        <ele>698.76</ele>
        <time>2016-02-12T08:43:09.000Z</time>
      </trkpt>
      <trkpt lat="47.78399" lon="6.94859">
        <ele>703.34</ele>
        <time>2016-02-12T08:43:41.000Z</time>
      </trkpt>
      <trkpt lat="47.78381" lon="6.94829">
        <ele>709.66</ele>
        <time>2016-02-12T08:44:25.000Z</time>
      </trkpt>
      <trkpt lat="47.78363" lon="6.94796">
        <ele>715.44</ele>
        <time>2016-02-12T08:45:07.000Z</time>
      </trkpt>
      <trkpt lat="47.78319" lon="6.94742">
        <ele>718.54</ele>
        <time>2016-02-12T08:46:07.000Z</time>
      </trkpt>
      <trkpt lat="47.78209" lon="6.94653">
        <ele>729.82</ele>
        <time>2016-02-12T08:48:24.000Z</time>
      </trkpt>
      <trkpt lat="47.78184" lon="6.94618">
        <ele>735.41</ele>
        <time>2016-02-12T08:49:07.000Z</time>
      </trkpt>
      <trkpt lat="47.78142" lon="6.94572">
        <ele>742.19</ele>
        <time>2016-02-12T08:50:08.000Z</time>
      </trkpt>
      <trkpt lat="47.78098" lon="6.94516">
        <ele>747.92</ele>
        <time>2016-02-12T08:51:12.000Z</time>
      </trkpt>
      <trkpt lat="47.78068" lon="6.94477">
        <ele>750.08</ele>
        <time>2016-02-12T08:51:51.000Z</time>
      </trkpt>
      <trkpt lat="47.78024" lon="6.94393">
        <ele>753.6</ele>
        <time>2016-02-12T08:52:58.000Z</time>
      </trkpt>
      <trkpt lat="47.78008" lon="6.94366">
        <ele>754.39</ele>
        <time>2016-02-12T08:53:20.000Z</time>
      </trkpt>
      <trkpt lat="47.77983" lon="6.94293">
        <ele>757.25</ele>
        <time>2016-02-12T08:54:17.000Z</time>
      </trkpt>
      <trkpt lat="47.77942" lon="6.94234">
        <ele>761.85</ele>
        <time>2016-02-12T08:55:14.000Z</time>
      </trkpt>
      <trkpt lat="47.77908" lon="6.94194">
        <ele>766.34</ele>
        <time>2016-02-12T08:55:56.000Z</time>
      </trkpt>
      <trkpt lat="47.77902" lon="6.94141">
        <ele>771.05</ele>
        <time>2016-02-12T08:56:39.000Z</time>
      </trkpt>
      <trkpt lat="47.779" lon="6.94121">
        <ele>773.91</ele>
        <time>2016-02-12T08:57:00.000Z</time>
      </trkpt>
      <trkpt lat="47.7791" lon="6.94107">
        <ele>775.36</ele>
        <time>2016-02-12T08:57:19.000Z</time>
      </trkpt>
      <trkpt lat="47.77921" lon="6.94097">
        <ele>775.43</ele>
        <time>2016-02-12T08:57:39.000Z</time>
      </trkpt>
      <trkpt lat="47.77911" lon="6.941">
        <ele>775.93</ele>
        <time>2016-02-12T09:00:49.000Z</time>
      </trkpt>
      <trkpt lat="47.77921" lon="6.94094">
        <ele>775.94</ele>
        <time>2016-02-12T09:01:50.000Z</time>
      </trkpt>
      <trkpt lat="47.77892" lon="6.94105">
        <ele>776.38</ele>
        <time>2016-02-12T09:04:51.000Z</time>
      </trkpt>
      <trkpt lat="47.77837" lon="6.94056">
        <ele>781.08</ele>
        <time>2016-02-12T09:06:51.000Z</time>
      </trkpt>
      <trkpt lat="47.77773" lon="6.93972">
        <ele>788.6</ele>
        <time>2016-02-12T09:08:48.000Z</time>
      </trkpt>
      <trkpt lat="47.77744" lon="6.93924">
        <ele>792.78</ele>
        <time>2016-02-12T09:09:54.000Z</time>
      </trkpt>
      <trkpt lat="47.77704" lon="6.93814">
        <ele>797.95</ele>
        <time>2016-02-12T09:11:45.000Z</time>
      </trkpt>
      <trkpt lat="47.77674" lon="6.9373">
        <ele>800.66</ele>
        <time>2016-02-12T09:13:10.000Z</time>
      </trkpt>
      <trkpt lat="47.77672" lon="6.93715">
        <ele>800.99</ele>
        <time>2016-02-12T09:13:50.000Z</time>
      </trkpt>
      <trkpt lat="47.77658" lon="6.93696">
        <ele>800.99</ele>
        <time>2016-02-12T09:14:35.000Z</time>
      </trkpt>
      <trkpt lat="47.77662" lon="6.93682">
        <ele>800.99</ele>
        <time>2016-02-12T09:14:54.000Z</time>
      </trkpt>
      <trkpt lat="47.7766" lon="6.93664">
        <ele>800.66</ele>
        <time>2016-02-12T09:15:11.000Z</time>
      </trkpt>
      <trkpt lat="47.77661" lon="6.93636">
        <ele>800.31</ele>
        <time>2016-02-12T09:16:07.000Z</time>
      </trkpt>
      <trkpt lat="47.77663" lon="6.93619">
        <ele>800.66</ele>
        <time>2016-02-12T09:17:01.000Z</time>
      </trkpt>
      <trkpt lat="47.77649" lon="6.93624">
        <ele>800.5</ele>
        <time>2016-02-12T09:17:40.000Z</time>
      </trkpt>
      <trkpt lat="47.77641" lon="6.93613">
        <ele>801.08</ele>
        <time>2016-02-12T09:18:11.000Z</time>
      </trkpt>
      <trkpt lat="47.77666" lon="6.93628">
        <ele>801.08</ele>
        <time>2016-02-12T09:19:10.000Z</time>
      </trkpt>
      <trkpt lat="47.77653" lon="6.93642">
        <ele>800.97</ele>
        <time>2016-02-12T09:20:34.000Z</time>
      </trkpt>
      <trkpt lat="47.77665" lon="6.93699">
        <ele>800.5</ele>
        <time>2016-02-12T09:21:52.000Z</time>
      </trkpt>
      <trkpt lat="47.77691" lon="6.93722">
        <ele>800.97</ele>
        <time>2016-02-12T09:23:14.000Z</time>
      </trkpt>
      <trkpt lat="47.77693" lon="6.9374">
        <ele>800.97</ele>
        <time>2016-02-12T09:23:31.000Z</time>
      </trkpt>
      <trkpt lat="47.77686" lon="6.93752">
        <ele>801.32</ele>
        <time>2016-02-12T09:23:51.000Z</time>
      </trkpt>
      <trkpt lat="47.77688" lon="6.93769">
        <ele>801.32</ele>
        <time>2016-02-12T09:24:10.000Z</time>
      </trkpt>
      <trkpt lat="47.777" lon="6.93799">
        <ele>801.9</ele>
        <time>2016-02-12T09:24:38.000Z</time>
      </trkpt>
      <trkpt lat="47.77707" lon="6.93825">
        <ele>802.21</ele>
        <time>2016-02-12T09:25:00.000Z</time>
      </trkpt>
      <trkpt lat="47.777" lon="6.93885">
        <ele>805.75</ele>
        <time>2016-02-12T09:26:08.000Z</time>
      </trkpt>
      <trkpt lat="47.77692" lon="6.93926">
        <ele>811.23</ele>
        <time>2016-02-12T09:26:53.000Z</time>
      </trkpt>
      <trkpt lat="47.77704" lon="6.93964">
        <ele>811.91</ele>
        <time>2016-02-12T09:27:26.000Z</time>
      </trkpt>
      <trkpt lat="47.77711" lon="6.94056">
        <ele>817.08</ele>
        <time>2016-02-12T09:28:46.000Z</time>
      </trkpt>
      <trkpt lat="47.77716" lon="6.94112">
        <ele>819.59</ele>
        <time>2016-02-12T09:29:30.000Z</time>
      </trkpt>
      <trkpt lat="47.77707" lon="6.94156">
        <ele>819.59</ele>
        <time>2016-02-12T09:30:18.000Z</time>
      </trkpt>
      <trkpt lat="47.77707" lon="6.94178">
        <ele>819.59</ele>
        <time>2016-02-12T09:30:55.000Z</time>
      </trkpt>
      <trkpt lat="47.77711" lon="6.9421">
        <ele>818.51</ele>
        <time>2016-02-12T09:31:22.000Z</time>
      </trkpt>
      <trkpt lat="47.77707" lon="6.94238">
        <ele>818.51</ele>
        <time>2016-02-12T09:31:43.000Z</time>
      </trkpt>
      <trkpt lat="47.77697" lon="6.94252">
        <ele>818.51</ele>
        <time>2016-02-12T09:32:03.000Z</time>
      </trkpt>
      <trkpt lat="47.77684" lon="6.94258">
        <ele>820.74</ele>
        <time>2016-02-12T09:32:24.000Z</time>
      </trkpt>
      <trkpt lat="47.77646" lon="6.94214">
        <ele>835.47</ele>
        <time>2016-02-12T09:34:22.000Z</time>
      </trkpt>
      <trkpt lat="47.77625" lon="6.94186">
        <ele>843.46</ele>
        <time>2016-02-12T09:35:22.000Z</time>
      </trkpt>
      <trkpt lat="47.77601" lon="6.94155">
        <ele>852.34</ele>
        <time>2016-02-12T09:36:31.000Z</time>
      </trkpt>
      <trkpt lat="47.77581" lon="6.94118">
        <ele>859.29</ele>
        <time>2016-02-12T09:37:32.000Z</time>
      </trkpt>
      <trkpt lat="47.7757" lon="6.94081">
        <ele>863.18</ele>
        <time>2016-02-12T09:38:22.000Z</time>
      </trkpt>
      <trkpt lat="47.77568" lon="6.94062">
        <ele>864.93</ele>
        <time>2016-02-12T09:38:44.000Z</time>
      </trkpt>
      <trkpt lat="47.77556" lon="6.94021">
        <ele>869.29</ele>
        <time>2016-02-12T09:39:28.000Z</time>
      </trkpt>
      <trkpt lat="47.77546" lon="6.93999">
        <ele>872.21</ele>
        <time>2016-02-12T09:39:51.000Z</time>
      </trkpt>
      <trkpt lat="47.77542" lon="6.93955">
        <ele>874.71</ele>
        <time>2016-02-12T09:40:29.000Z</time>
      </trkpt>
      <trkpt lat="47.77536" lon="6.93934">
        <ele>876.73</ele>
        <time>2016-02-12T09:40:50.000Z</time>
      </trkpt>
      <trkpt lat="47.77517" lon="6.93873">
        <ele>881.9</ele>
        <time>2016-02-12T09:41:54.000Z</time>
      </trkpt>
      <trkpt lat="47.77514" lon="6.93846">
        <ele>883.12</ele>
        <time>2016-02-12T09:42:15.000Z</time>
      </trkpt>
      <trkpt lat="47.77493" lon="6.93784">
        <ele>886.6</ele>
        <time>2016-02-12T09:43:11.000Z</time>
      </trkpt>
      <trkpt lat="47.77487" lon="6.93737">
        <ele>890.48</ele>
        <time>2016-02-12T09:43:56.000Z</time>
      </trkpt>
      <trkpt lat="47.77488" lon="6.9371">
        <ele>892.27</ele>
        <time>2016-02-12T09:44:20.000Z</time>
      </trkpt>
      <trkpt lat="47.77482" lon="6.93677">
        <ele>896.95</ele>
        <time>2016-02-12T09:45:05.000Z</time>
      </trkpt>
      <trkpt lat="47.77472" lon="6.93639">
        <ele>903.02</ele>
        <time>2016-02-12T09:45:50.000Z</time>
      </trkpt>
      <trkpt lat="47.77465" lon="6.9362">
        <ele>905.78</ele>
        <time>2016-02-12T09:46:15.000Z</time>
      </trkpt>
      <trkpt lat="47.77449" lon="6.93615">
        <ele>906.15</ele>
        <time>2016-02-12T09:46:38.000Z</time>
      </trkpt>
      <trkpt lat="47.77458" lon="6.93586">
        <ele>909.72</ele>
        <time>2016-02-12T09:47:20.000Z</time>
      </trkpt>
      <trkpt lat="47.77448" lon="6.93549">
        <ele>913.64</ele>
        <time>2016-02-12T09:48:02.000Z</time>
      </trkpt>
      <trkpt lat="47.77444" lon="6.9353">
        <ele>915.96</ele>
        <time>2016-02-12T09:48:23.000Z</time>
      </trkpt>
      <trkpt lat="47.77415" lon="6.93465">
        <ele>919.77</ele>
        <time>2016-02-12T09:49:22.000Z</time>
      </trkpt>
      <trkpt lat="47.77396" lon="6.9342">
        <ele>924.71</ele>
        <time>2016-02-12T09:50:07.000Z</time>
      </trkpt>
      <trkpt lat="47.77379" lon="6.93387">
        <ele>928.24</ele>
        <time>2016-02-12T09:50:43.000Z</time>
      </trkpt>
      <trkpt lat="47.77341" lon="6.93336">
        <ele>937.16</ele>
        <time>2016-02-12T09:51:59.000Z</time>
      </trkpt>
      <trkpt lat="47.77323" lon="6.93306">
        <ele>942.64</ele>
        <time>2016-02-12T09:52:50.000Z</time>
      </trkpt>
      <trkpt lat="47.77314" lon="6.93292">
        <ele>944.91</ele>
        <time>2016-02-12T09:53:11.000Z</time>
      </trkpt>
      <trkpt lat="47.77285" lon="6.93303">
        <ele>945.85</ele>
        <time>2016-02-12T09:54:01.000Z</time>
      </trkpt>
      <trkpt lat="47.773" lon="6.93289">
        <ele>949.44</ele>
        <time>2016-02-12T09:54:32.000Z</time>
      </trkpt>
      <trkpt lat="47.77288" lon="6.93259">
        <ele>953.96</ele>
        <time>2016-02-12T09:55:12.000Z</time>
      </trkpt>
      <trkpt lat="47.77257" lon="6.9321">
        <ele>958.67</ele>
        <time>2016-02-12T09:56:07.000Z</time>
      </trkpt>
      <trkpt lat="47.7722" lon="6.9315">
        <ele>968.12</ele>
        <time>2016-02-12T09:57:31.000Z</time>
      </trkpt>
      <trkpt lat="47.77206" lon="6.93119">
        <ele>974.18</ele>
        <time>2016-02-12T09:58:13.000Z</time>
      </trkpt>
      <trkpt lat="47.77185" lon="6.93055">
        <ele>980.88</ele>
        <time>2016-02-12T09:59:10.000Z</time>
      </trkpt>
      <trkpt lat="47.77178" lon="6.9302">
        <ele>983.79</ele>
        <time>2016-02-12T09:59:47.000Z</time>
      </trkpt>
      <trkpt lat="47.77163" lon="6.92974">
        <ele>987.54</ele>
        <time>2016-02-12T10:00:25.000Z</time>
      </trkpt>
      <trkpt lat="47.7715" lon="6.92915">
        <ele>991.95</ele>
        <time>2016-02-12T10:01:24.000Z</time>
      </trkpt>
      <trkpt lat="47.77141" lon="6.92891">
        <ele>993.35</ele>
        <time>2016-02-12T10:01:49.000Z</time>
      </trkpt>
      <trkpt lat="47.77132" lon="6.92848">
        <ele>998.22</ele>
        <time>2016-02-12T10:02:30.000Z</time>
      </trkpt>
      <trkpt lat="47.77127" lon="6.9283">
        <ele>1000.62</ele>
        <time>2016-02-12T10:02:50.000Z</time>
      </trkpt>
      <trkpt lat="47.77117" lon="6.92787">
        <ele>1004.8</ele>
        <time>2016-02-12T10:03:33.000Z</time>
      </trkpt>
      <trkpt lat="47.77107" lon="6.92757">
        <ele>1008.75</ele>
        <time>2016-02-12T10:04:12.000Z</time>
      </trkpt>
      <trkpt lat="47.77104" lon="6.92742">
        <ele>1011.53</ele>
        <time>2016-02-12T10:04:30.000Z</time>
      </trkpt>
      <trkpt lat="47.77102" lon="6.92725">
        <ele>1014.02</ele>
        <time>2016-02-12T10:04:51.000Z</time>
      </trkpt>
      <trkpt lat="47.77094" lon="6.92695">
        <ele>1017.35</ele>
        <time>2016-02-12T10:05:26.000Z</time>
      </trkpt>
      <trkpt lat="47.77095" lon="6.9268">
        <ele>1019.9</ele>
        <time>2016-02-12T10:05:47.000Z</time>
      </trkpt>
      <trkpt lat="47.7709" lon="6.92644">
        <ele>1026.26</ele>
        <time>2016-02-12T10:06:42.000Z</time>
      </trkpt>
      <trkpt lat="47.77089" lon="6.92612">
        <ele>1031.15</ele>
        <time>2016-02-12T10:07:25.000Z</time>
      </trkpt>
      <trkpt lat="47.77098" lon="6.92566">
        <ele>1036.41</ele>
        <time>2016-02-12T10:08:14.000Z</time>
      </trkpt>
      <trkpt lat="47.7711" lon="6.92536">
        <ele>1040.44</ele>
        <time>2016-02-12T10:08:54.000Z</time>
      </trkpt>
      <trkpt lat="47.77116" lon="6.92513">
        <ele>1042.13</ele>
        <time>2016-02-12T10:09:14.000Z</time>
      </trkpt>
      <trkpt lat="47.77134" lon="6.92485">
        <ele>1046.68</ele>
        <time>2016-02-12T10:10:55.000Z</time>
      </trkpt>
      <trkpt lat="47.77144" lon="6.92474">
        <ele>1049.4</ele>
        <time>2016-02-12T10:11:18.000Z</time>
      </trkpt>
      <trkpt lat="47.77191" lon="6.92454">
        <ele>1053.04</ele>
        <time>2016-02-12T10:12:27.000Z</time>
      </trkpt>
      <trkpt lat="47.772" lon="6.92451">
        <ele>1053.85</ele>
        <time>2016-02-12T10:12:46.000Z</time>
      </trkpt>
      <trkpt lat="47.77242" lon="6.9245">
        <ele>1058.4</ele>
        <time>2016-02-12T10:13:51.000Z</time>
      </trkpt>
      <trkpt lat="47.77259" lon="6.9244">
        <ele>1060.01</ele>
        <time>2016-02-12T10:14:12.000Z</time>
      </trkpt>
      <trkpt lat="47.77273" lon="6.92438">
        <ele>1061.57</ele>
        <time>2016-02-12T10:14:35.000Z</time>
      </trkpt>
      <trkpt lat="47.77279" lon="6.92428">
        <ele>1062.96</ele>
        <time>2016-02-12T10:14:57.000Z</time>
      </trkpt>
      <trkpt lat="47.77277" lon="6.92411">
        <ele>1065.95</ele>
        <time>2016-02-12T10:15:20.000Z</time>
      </trkpt>
      <trkpt lat="47.7728" lon="6.92398">
        <ele>1067.88</ele>
        <time>2016-02-12T10:15:42.000Z</time>
      </trkpt>
      <trkpt lat="47.77275" lon="6.9237">
        <ele>1073.58</ele>
        <time>2016-02-12T10:17:23.000Z</time>
      </trkpt>
      <trkpt lat="47.77276" lon="6.92356">
        <ele>1078.2</ele>
        <time>2016-02-12T10:20:11.000Z</time>
      </trkpt>
      <trkpt lat="47.77274" lon="6.92339">
        <ele>1082.03</ele>
        <time>2016-02-12T10:20:49.000Z</time>
      </trkpt>
      <trkpt lat="47.77254" lon="6.92331">
        <ele>1085.12</ele>
        <time>2016-02-12T10:21:30.000Z</time>
      </trkpt>
      <trkpt lat="47.77245" lon="6.9232">
        <ele>1088.45</ele>
        <time>2016-02-12T10:22:18.000Z</time>
      </trkpt>
      <trkpt lat="47.77252" lon="6.9231">
        <ele>1091.38</ele>
        <time>2016-02-12T10:23:12.000Z</time>
      </trkpt>
      <trkpt lat="47.77262" lon="6.92305">
        <ele>1096.31</ele>
        <time>2016-02-12T10:23:52.000Z</time>
      </trkpt>
      <trkpt lat="47.77268" lon="6.92296">
        <ele>1099.44</ele>
        <time>2016-02-12T10:24:15.000Z</time>
      </trkpt>
      <trkpt lat="47.77274" lon="6.92284">
        <ele>1101.92</ele>
        <time>2016-02-12T10:24:37.000Z</time>
      </trkpt>
      <trkpt lat="47.77237" lon="6.92219">
        <ele>1115.99</ele>
        <time>2016-02-12T10:26:42.000Z</time>
      </trkpt>
      <trkpt lat="47.77231" lon="6.92233">
        <ele>1118.49</ele>
        <time>2016-02-12T10:30:06.000Z</time>
      </trkpt>
      <trkpt lat="47.7724" lon="6.92217">
        <ele>1118.68</ele>
        <time>2016-02-12T10:31:02.000Z</time>
      </trkpt>
      <trkpt lat="47.77251" lon="6.92217">
        <ele>1118.68</ele>
        <time>2016-02-12T10:33:18.000Z</time>
      </trkpt>
      <trkpt lat="47.77267" lon="6.92211">
        <ele>1118.49</ele>
        <time>2016-02-12T10:33:37.000Z</time>
      </trkpt>
      <trkpt lat="47.77297" lon="6.9218">
        <ele>1116.12</ele>
        <time>2016-02-12T10:34:37.000Z</time>
      </trkpt>
      <trkpt lat="47.77303" lon="6.9217">
        <ele>1113.08</ele>
        <time>2016-02-12T10:34:47.000Z</time>
      </trkpt>
      <trkpt lat="47.77309" lon="6.92158">
        <ele>1109.85</ele>
        <time>2016-02-12T10:35:00.000Z</time>
      </trkpt>
      <trkpt lat="47.77314" lon="6.92141">
        <ele>1106.76</ele>
        <time>2016-02-12T10:35:12.000Z</time>
      </trkpt>
      <trkpt lat="47.77311" lon="6.92121">
        <ele>1104.1</ele>
        <time>2016-02-12T10:35:35.000Z</time>
      </trkpt>
      <trkpt lat="47.77325" lon="6.92116">
        <ele>1102.43</ele>
        <time>2016-02-12T10:37:18.000Z</time>
      </trkpt>
      <trkpt lat="47.77341" lon="6.9207">
        <ele>1099.25</ele>
        <time>2016-02-12T10:37:50.000Z</time>
      </trkpt>
      <trkpt lat="47.77363" lon="6.92032">
        <ele>1097.2</ele>
        <time>2016-02-12T10:38:23.000Z</time>
      </trkpt>
      <trkpt lat="47.77383" lon="6.91961">
        <ele>1097.2</ele>
        <time>2016-02-12T10:39:20.000Z</time>
      </trkpt>
      <trkpt lat="47.77392" lon="6.91946">
        <ele>1097.2</ele>
        <time>2016-02-12T10:39:40.000Z</time>
      </trkpt>
      <trkpt lat="47.77402" lon="6.91901">
        <ele>1099.65</ele>
        <time>2016-02-12T10:40:23.000Z</time>
      </trkpt>
      <trkpt lat="47.77411" lon="6.91886">
        <ele>1101.18</ele>
        <time>2016-02-12T10:40:44.000Z</time>
      </trkpt>
      <trkpt lat="47.77439" lon="6.91859">
        <ele>1101.18</ele>
        <time>2016-02-12T10:41:24.000Z</time>
      </trkpt>
      <trkpt lat="47.77455" lon="6.91854">
        <ele>1101.18</ele>
        <time>2016-02-12T10:42:07.000Z</time>
      </trkpt>
      <trkpt lat="47.77473" lon="6.91821">
        <ele>1097.25</ele>
        <time>2016-02-12T10:42:37.000Z</time>
      </trkpt>
      <trkpt lat="47.77496" lon="6.91797">
        <ele>1092.01</ele>
        <time>2016-02-12T10:43:12.000Z</time>
      </trkpt>
      <trkpt lat="47.77516" lon="6.91773">
        <ele>1088.78</ele>
        <time>2016-02-12T10:44:11.000Z</time>
      </trkpt>
      <trkpt lat="47.77525" lon="6.91758">
        <ele>1085.74</ele>
        <time>2016-02-12T10:44:26.000Z</time>
      </trkpt>
      <trkpt lat="47.77544" lon="6.91724">
        <ele>1080.29</ele>
        <time>2016-02-12T10:45:03.000Z</time>
      </trkpt>
      <trkpt lat="47.77552" lon="6.91707">
        <ele>1077.23</ele>
        <time>2016-02-12T10:45:20.000Z</time>
      </trkpt>
      <trkpt lat="47.77563" lon="6.91693">
        <ele>1073.96</ele>
        <time>2016-02-12T10:45:34.000Z</time>
      </trkpt>
      <trkpt lat="47.77589" lon="6.9166">
        <ele>1068.22</ele>
        <time>2016-02-12T10:46:08.000Z</time>
      </trkpt>
      <trkpt lat="47.77592" lon="6.91636">
        <ele>1067.02</ele>
        <time>2016-02-12T10:46:30.000Z</time>
      </trkpt>
      <trkpt lat="47.77591" lon="6.91611">
        <ele>1063.93</ele>
        <time>2016-02-12T10:46:49.000Z</time>
      </trkpt>
      <trkpt lat="47.77586" lon="6.9159">
        <ele>1061.42</ele>
        <time>2016-02-12T10:47:04.000Z</time>
      </trkpt>
      <trkpt lat="47.77592" lon="6.91566">
        <ele>1058.63</ele>
        <time>2016-02-12T10:47:22.000Z</time>
      </trkpt>
      <trkpt lat="47.77625" lon="6.91516">
        <ele>1053.4</ele>
        <time>2016-02-12T10:48:13.000Z</time>
      </trkpt>
      <trkpt lat="47.77638" lon="6.91503">
        <ele>1050.3</ele>
        <time>2016-02-12T10:48:30.000Z</time>
      </trkpt>
      <trkpt lat="47.77652" lon="6.91492">
        <ele>1047.2</ele>
        <time>2016-02-12T10:48:47.000Z</time>
      </trkpt>
      <trkpt lat="47.77664" lon="6.91483">
        <ele>1044</ele>
        <time>2016-02-12T10:49:01.000Z</time>
      </trkpt>
      <trkpt lat="47.77677" lon="6.91472">
        <ele>1040.82</ele>
        <time>2016-02-12T10:49:16.000Z</time>
      </trkpt>
      <trkpt lat="47.77692" lon="6.91434">
        <ele>1035.4</ele>
        <time>2016-02-12T10:49:51.000Z</time>
      </trkpt>
      <trkpt lat="47.77701" lon="6.91416">
        <ele>1032.12</ele>
        <time>2016-02-12T10:50:06.000Z</time>
      </trkpt>
      <trkpt lat="47.7771" lon="6.91402">
        <ele>1029.04</ele>
        <time>2016-02-12T10:50:21.000Z</time>
      </trkpt>
      <trkpt lat="47.77721" lon="6.91381">
        <ele>1025.97</ele>
        <time>2016-02-12T10:50:37.000Z</time>
      </trkpt>
      <trkpt lat="47.77731" lon="6.9136">
        <ele>1025.12</ele>
        <time>2016-02-12T10:50:54.000Z</time>
      </trkpt>
      <trkpt lat="47.77744" lon="6.91352">
        <ele>1024.9</ele>
        <time>2016-02-12T10:51:17.000Z</time>
      </trkpt>
      <trkpt lat="47.77757" lon="6.91366">
        <ele>1024.53</ele>
        <time>2016-02-12T10:51:34.000Z</time>
      </trkpt>
      <trkpt lat="47.77766" lon="6.91368">
        <ele>1024.53</ele>
        <time>2016-02-12T10:51:47.000Z</time>
      </trkpt>
      <trkpt lat="47.77784" lon="6.91366">
        <ele>1022.97</ele>
        <time>2016-02-12T10:52:05.000Z</time>
      </trkpt>
      <trkpt lat="47.77815" lon="6.91345">
        <ele>1021.53</ele>
        <time>2016-02-12T10:52:37.000Z</time>
      </trkpt>
      <trkpt lat="47.7784" lon="6.91314">
        <ele>1015.61</ele>
        <time>2016-02-12T10:53:07.000Z</time>
      </trkpt>
      <trkpt lat="47.77855" lon="6.91301">
        <ele>1012.55</ele>
        <time>2016-02-12T10:53:22.000Z</time>
      </trkpt>
      <trkpt lat="47.77878" lon="6.91268">
        <ele>1008.99</ele>
        <time>2016-02-12T10:53:55.000Z</time>
      </trkpt>
      <trkpt lat="47.77918" lon="6.91205">
        <ele>1003.66</ele>
        <time>2016-02-12T10:55:20.000Z</time>
      </trkpt>
      <trkpt lat="47.77932" lon="6.91179">
        <ele>1002.04</ele>
        <time>2016-02-12T10:55:47.000Z</time>
      </trkpt>
      <trkpt lat="47.77946" lon="6.91188">
        <ele>999.17</ele>
        <time>2016-02-12T10:56:04.000Z</time>
      </trkpt>
      <trkpt lat="47.77971" lon="6.91233">
        <ele>990.54</ele>
        <time>2016-02-12T10:56:40.000Z</time>
      </trkpt>
      <trkpt lat="47.77973" lon="6.91263">
        <ele>984.94</ele>
        <time>2016-02-12T10:57:10.000Z</time>
      </trkpt>
      <trkpt lat="47.77978" lon="6.91294">
        <ele>976.48</ele>
        <time>2016-02-12T10:57:31.000Z</time>
      </trkpt>
      <trkpt lat="47.77983" lon="6.91325">
        <ele>966.97</ele>
        <time>2016-02-12T10:57:51.000Z</time>
      </trkpt>
      <trkpt lat="47.77997" lon="6.91346">
        <ele>956.24</ele>
        <time>2016-02-12T10:58:20.000Z</time>
      </trkpt>
      <trkpt lat="47.77986" lon="6.91392">
        <ele>950.61</ele>
        <time>2016-02-12T10:58:59.000Z</time>
      </trkpt>
      <trkpt lat="47.77987" lon="6.91412">
        <ele>949.08</ele>
        <time>2016-02-12T10:59:38.000Z</time>
      </trkpt>
      <trkpt lat="47.77967" lon="6.91402">
        <ele>949.08</ele>
        <time>2016-02-12T11:04:19.000Z</time>
      </trkpt>
      <trkpt lat="47.77976" lon="6.91406">
        <ele>949.81</ele>
        <time>2016-02-12T11:06:17.000Z</time>
      </trkpt>
      <trkpt lat="47.77981" lon="6.91392">
        <ele>952.85</ele>
        <time>2016-02-12T11:20:25.000Z</time>
      </trkpt>
      <trkpt lat="47.77996" lon="6.91388">
        <ele>952.85</ele>
        <time>2016-02-12T11:20:39.000Z</time>
      </trkpt>
      <trkpt lat="47.78019" lon="6.9139">
        <ele>951.32</ele>
        <time>2016-02-12T11:20:59.000Z</time>
      </trkpt>
      <trkpt lat="47.78062" lon="6.91409">
        <ele>950.97</ele>
        <time>2016-02-12T11:21:42.000Z</time>
      </trkpt>
      <trkpt lat="47.78081" lon="6.91449">
        <ele>950.97</ele>
        <time>2016-02-12T11:22:05.000Z</time>
      </trkpt>
      <trkpt lat="47.78078" lon="6.91511">
        <ele>951.32</ele>
        <time>2016-02-12T11:22:42.000Z</time>
      </trkpt>
      <trkpt lat="47.78093" lon="6.91575">
        <ele>954.07</ele>
        <time>2016-02-12T11:23:35.000Z</time>
      </trkpt>
      <trkpt lat="47.78114" lon="6.91657">
        <ele>959.44</ele>
        <time>2016-02-12T11:24:43.000Z</time>
      </trkpt>
      <trkpt lat="47.78136" lon="6.91714">
        <ele>964.94</ele>
        <time>2016-02-12T11:25:34.000Z</time>
      </trkpt>
      <trkpt lat="47.78156" lon="6.91742">
        <ele>967.77</ele>
        <time>2016-02-12T11:26:02.000Z</time>
      </trkpt>
      <trkpt lat="47.78211" lon="6.91852">
        <ele>974.81</ele>
        <time>2016-02-12T11:27:40.000Z</time>
      </trkpt>
      <trkpt lat="47.78247" lon="6.91956">
        <ele>979.13</ele>
        <time>2016-02-12T11:28:57.000Z</time>
      </trkpt>
      <trkpt lat="47.78271" lon="6.92047">
        <ele>981.98</ele>
        <time>2016-02-12T11:30:13.000Z</time>
      </trkpt>
      <trkpt lat="47.78287" lon="6.92066">
        <ele>982.38</ele>
        <time>2016-02-12T11:30:28.000Z</time>
      </trkpt>
      <trkpt lat="47.78299" lon="6.92117">
        <ele>983.63</ele>
        <time>2016-02-12T11:31:06.000Z</time>
      </trkpt>
      <trkpt lat="47.78338" lon="6.9228">
        <ele>987.93</ele>
        <time>2016-02-12T11:33:12.000Z</time>
      </trkpt>
      <trkpt lat="47.78337" lon="6.92298">
        <ele>988.88</ele>
        <time>2016-02-12T11:33:37.000Z</time>
      </trkpt>
      <trkpt lat="47.78353" lon="6.92315">
        <ele>993.66</ele>
        <time>2016-02-12T11:34:11.000Z</time>
      </trkpt>
      <trkpt lat="47.78355" lon="6.92352">
        <ele>995.51</ele>
        <time>2016-02-12T11:34:42.000Z</time>
      </trkpt>
      <trkpt lat="47.78374" lon="6.92426">
        <ele>999.61</ele>
        <time>2016-02-12T11:35:38.000Z</time>
      </trkpt>
      <trkpt lat="47.7837" lon="6.9248">
        <ele>1002.41</ele>
        <time>2016-02-12T11:36:19.000Z</time>
      </trkpt>
      <trkpt lat="47.7838" lon="6.92523">
        <ele>1005.45</ele>
        <time>2016-02-12T11:37:03.000Z</time>
      </trkpt>
      <trkpt lat="47.78377" lon="6.92584">
        <ele>1005.45</ele>
        <time>2016-02-12T11:37:40.000Z</time>
      </trkpt>
      <trkpt lat="47.78389" lon="6.92609">
        <ele>1005.45</ele>
        <time>2016-02-12T11:38:23.000Z</time>
      </trkpt>
      <trkpt lat="47.78408" lon="6.92617">
        <ele>1004.16</ele>
        <time>2016-02-12T11:38:45.000Z</time>
      </trkpt>
      <trkpt lat="47.78431" lon="6.92639">
        <ele>998</ele>
        <time>2016-02-12T11:39:19.000Z</time>
      </trkpt>
      <trkpt lat="47.78444" lon="6.92646">
        <ele>994.86</ele>
        <time>2016-02-12T11:39:35.000Z</time>
      </trkpt>
      <trkpt lat="47.78464" lon="6.92653">
        <ele>988.43</ele>
        <time>2016-02-12T11:40:03.000Z</time>
      </trkpt>
      <trkpt lat="47.78477" lon="6.92655">
        <ele>985.34</ele>
        <time>2016-02-12T11:40:17.000Z</time>
      </trkpt>
      <trkpt lat="47.78485" lon="6.92658">
        <ele>982.26</ele>
        <time>2016-02-12T11:40:31.000Z</time>
      </trkpt>
      <trkpt lat="47.78504" lon="6.92671">
        <ele>976.06</ele>
        <time>2016-02-12T11:40:55.000Z</time>
      </trkpt>
      <trkpt lat="47.78514" lon="6.92677">
        <ele>972.97</ele>
        <time>2016-02-12T11:41:06.000Z</time>
      </trkpt>
      <trkpt lat="47.78528" lon="6.92686">
        <ele>968</ele>
        <time>2016-02-12T11:41:25.000Z</time>
      </trkpt>
      <trkpt lat="47.78544" lon="6.92703">
        <ele>961.64</ele>
        <time>2016-02-12T11:41:51.000Z</time>
      </trkpt>
      <trkpt lat="47.78563" lon="6.92728">
        <ele>951.92</ele>
        <time>2016-02-12T11:42:26.000Z</time>
      </trkpt>
      <trkpt lat="47.786" lon="6.92839">
        <ele>929.95</ele>
        <time>2016-02-12T11:43:59.000Z</time>
      </trkpt>
      <trkpt lat="47.78617" lon="6.92862">
        <ele>923.75</ele>
        <time>2016-02-12T11:44:27.000Z</time>
      </trkpt>
      <trkpt lat="47.78636" lon="6.92874">
        <ele>917.63</ele>
        <time>2016-02-12T11:44:57.000Z</time>
      </trkpt>
      <trkpt lat="47.7865" lon="6.92889">
        <ele>911.27</ele>
        <time>2016-02-12T11:45:20.000Z</time>
      </trkpt>
      <trkpt lat="47.78672" lon="6.92924">
        <ele>901.74</ele>
        <time>2016-02-12T11:45:57.000Z</time>
      </trkpt>
      <trkpt lat="47.787" lon="6.92939">
        <ele>896.47</ele>
        <time>2016-02-12T11:46:23.000Z</time>
      </trkpt>
      <trkpt lat="47.7871" lon="6.92944">
        <ele>894.26</ele>
        <time>2016-02-12T11:46:36.000Z</time>
      </trkpt>
      <trkpt lat="47.78751" lon="6.92988">
        <ele>888.77</ele>
        <time>2016-02-12T11:47:25.000Z</time>
      </trkpt>
      <trkpt lat="47.78768" lon="6.93008">
        <ele>885.76</ele>
        <time>2016-02-12T11:47:40.000Z</time>
      </trkpt>
      <trkpt lat="47.78783" lon="6.9302">
        <ele>882.51</ele>
        <time>2016-02-12T11:47:54.000Z</time>
      </trkpt>
      <trkpt lat="47.78814" lon="6.93036">
        <ele>878.83</ele>
        <time>2016-02-12T11:48:24.000Z</time>
      </trkpt>
      <trkpt lat="47.78841" lon="6.93038">
        <ele>875.13</ele>
        <time>2016-02-12T11:48:53.000Z</time>
      </trkpt>
      <trkpt lat="47.7886" lon="6.93044">
        <ele>873.93</ele>
        <time>2016-02-12T11:49:11.000Z</time>
      </trkpt>
      <trkpt lat="47.78877" lon="6.93055">
        <ele>871.55</ele>
        <time>2016-02-12T11:49:31.000Z</time>
      </trkpt>
      <trkpt lat="47.7892" lon="6.93104">
        <ele>866</ele>
        <time>2016-02-12T11:50:14.000Z</time>
      </trkpt>
      <trkpt lat="47.78956" lon="6.93113">
        <ele>861.26</ele>
        <time>2016-02-12T11:50:46.000Z</time>
      </trkpt>
      <trkpt lat="47.78969" lon="6.93112">
        <ele>857.8</ele>
        <time>2016-02-12T11:50:58.000Z</time>
      </trkpt>
      <trkpt lat="47.78981" lon="6.9311">
        <ele>854.5</ele>
        <time>2016-02-12T11:51:11.000Z</time>
      </trkpt>
      <trkpt lat="47.79005" lon="6.93119">
        <ele>852.29</ele>
        <time>2016-02-12T11:51:30.000Z</time>
      </trkpt>
      <trkpt lat="47.79026" lon="6.93139">
        <ele>851.45</ele>
        <time>2016-02-12T11:51:52.000Z</time>
      </trkpt>
      <trkpt lat="47.79044" lon="6.93165">
        <ele>851.38</ele>
        <time>2016-02-12T11:52:14.000Z</time>
      </trkpt>
      <trkpt lat="47.7906" lon="6.93182">
        <ele>850.42</ele>
        <time>2016-02-12T11:52:33.000Z</time>
      </trkpt>
      <trkpt lat="47.79158" lon="6.93221">
        <ele>844.43</ele>
        <time>2016-02-12T11:54:17.000Z</time>
      </trkpt>
      <trkpt lat="47.79284" lon="6.93246">
        <ele>844.19</ele>
        <time>2016-02-12T11:57:16.000Z</time>
      </trkpt>
      <trkpt lat="47.79294" lon="6.93259">
        <ele>842.95</ele>
        <time>2016-02-12T12:03:25.000Z</time>
      </trkpt>
      <trkpt lat="47.79318" lon="6.93336">
        <ele>827.54</ele>
        <time>2016-02-12T12:04:32.000Z</time>
      </trkpt>
      <trkpt lat="47.79343" lon="6.93445">
        <ele>817.32</ele>
        <time>2016-02-12T12:05:40.000Z</time>
      </trkpt>
      <trkpt lat="47.79361" lon="6.9347">
        <ele>809.62</ele>
        <time>2016-02-12T12:06:12.000Z</time>
      </trkpt>
      <trkpt lat="47.7937" lon="6.93478">
        <ele>806.57</ele>
        <time>2016-02-12T12:06:24.000Z</time>
      </trkpt>
      <trkpt lat="47.79395" lon="6.93498">
        <ele>798.84</ele>
        <time>2016-02-12T12:06:56.000Z</time>
      </trkpt>
      <trkpt lat="47.79413" lon="6.93479">
        <ele>796.83</ele>
        <time>2016-02-12T12:07:17.000Z</time>
      </trkpt>
      <trkpt lat="47.7942" lon="6.93417">
        <ele>791.55</ele>
        <time>2016-02-12T12:07:52.000Z</time>
      </trkpt>
      <trkpt lat="47.79416" lon="6.93355">
        <ele>786.34</ele>
        <time>2016-02-12T12:08:30.000Z</time>
      </trkpt>
      <trkpt lat="47.79428" lon="6.93352">
        <ele>781.52</ele>
        <time>2016-02-12T12:08:56.000Z</time>
      </trkpt>
      <trkpt lat="47.79443" lon="6.93397">
        <ele>777.05</ele>
        <time>2016-02-12T12:09:33.000Z</time>
      </trkpt>
      <trkpt lat="47.7946" lon="6.93425">
        <ele>777.04</ele>
        <time>2016-02-12T12:09:52.000Z</time>
      </trkpt>
      <trkpt lat="47.79483" lon="6.93448">
        <ele>776.39</ele>
        <time>2016-02-12T12:10:12.000Z</time>
      </trkpt>
      <trkpt lat="47.79507" lon="6.93515">
        <ele>776.26</ele>
        <time>2016-02-12T12:10:58.000Z</time>
      </trkpt>
      <trkpt lat="47.79517" lon="6.93526">
        <ele>773.43</ele>
        <time>2016-02-12T12:11:16.000Z</time>
      </trkpt>
      <trkpt lat="47.79565" lon="6.93525">
        <ele>768.31</ele>
        <time>2016-02-12T12:11:50.000Z</time>
      </trkpt>
      <trkpt lat="47.79584" lon="6.93549">
        <ele>766.77</ele>
        <time>2016-02-12T12:12:12.000Z</time>
      </trkpt>
      <trkpt lat="47.79576" lon="6.93564">
        <ele>766.65</ele>
        <time>2016-02-12T12:12:27.000Z</time>
      </trkpt>
      <trkpt lat="47.79466" lon="6.93629">
        <ele>765.41</ele>
        <time>2016-02-12T12:14:01.000Z</time>
      </trkpt>
      <trkpt lat="47.79457" lon="6.93642">
        <ele>763.61</ele>
        <time>2016-02-12T12:14:16.000Z</time>
      </trkpt>
      <trkpt lat="47.79439" lon="6.9368">
        <ele>760.24</ele>
        <time>2016-02-12T12:14:44.000Z</time>
      </trkpt>
      <trkpt lat="47.79415" lon="6.93729">
        <ele>756.28</ele>
        <time>2016-02-12T12:15:16.000Z</time>
      </trkpt>
      <trkpt lat="47.7941" lon="6.93768">
        <ele>753.78</ele>
        <time>2016-02-12T12:15:35.000Z</time>
      </trkpt>
      <trkpt lat="47.794" lon="6.93794">
        <ele>752.17</ele>
        <time>2016-02-12T12:15:46.000Z</time>
      </trkpt>
      <trkpt lat="47.79409" lon="6.93847">
        <ele>748.97</ele>
        <time>2016-02-12T12:16:12.000Z</time>
      </trkpt>
      <trkpt lat="47.79404" lon="6.93882">
        <ele>746.47</ele>
        <time>2016-02-12T12:16:33.000Z</time>
      </trkpt>
      <trkpt lat="47.79407" lon="6.93898">
        <ele>745.18</ele>
        <time>2016-02-12T12:16:57.000Z</time>
      </trkpt>
      <trkpt lat="47.79412" lon="6.93882">
        <ele>742.06</ele>
        <time>2016-02-12T12:17:13.000Z</time>
      </trkpt>
      <trkpt lat="47.79425" lon="6.93864">
        <ele>738.6</ele>
        <time>2016-02-12T12:17:27.000Z</time>
      </trkpt>
      <trkpt lat="47.79448" lon="6.93823">
        <ele>731.62</ele>
        <time>2016-02-12T12:17:56.000Z</time>
      </trkpt>
      <trkpt lat="47.7946" lon="6.93808">
        <ele>728.53</ele>
        <time>2016-02-12T12:18:08.000Z</time>
      </trkpt>
      <trkpt lat="47.79483" lon="6.93782">
        <ele>722.99</ele>
        <time>2016-02-12T12:18:31.000Z</time>
      </trkpt>
      <trkpt lat="47.7949" lon="6.93785">
        <ele>718.97</ele>
        <time>2016-02-12T12:18:50.000Z</time>
      </trkpt>
      <trkpt lat="47.7951" lon="6.93881">
        <ele>703.49</ele>
        <time>2016-02-12T12:19:51.000Z</time>
      </trkpt>
      <trkpt lat="47.79519" lon="6.93944">
        <ele>694.24</ele>
        <time>2016-02-12T12:20:30.000Z</time>
      </trkpt>
      <trkpt lat="47.79535" lon="6.93972">
        <ele>689.23</ele>
        <time>2016-02-12T12:20:55.000Z</time>
      </trkpt>
      <trkpt lat="47.79548" lon="6.93976">
        <ele>688.92</ele>
        <time>2016-02-12T12:21:01.000Z</time>
      </trkpt>
      <trkpt lat="47.79555" lon="6.93986">
        <ele>687.77</ele>
        <time>2016-02-12T12:21:12.000Z</time>
      </trkpt>
      <trkpt lat="47.79549" lon="6.94024">
        <ele>677.34</ele>
        <time>2016-02-12T12:21:43.000Z</time>
      </trkpt>
      <trkpt lat="47.7956" lon="6.94073">
        <ele>667.35</ele>
        <time>2016-02-12T12:22:22.000Z</time>
      </trkpt>
      <trkpt lat="47.7956" lon="6.94123">
        <ele>660.85</ele>
        <time>2016-02-12T12:23:01.000Z</time>
      </trkpt>
      <trkpt lat="47.79576" lon="6.94151">
        <ele>657.66</ele>
        <time>2016-02-12T12:23:37.000Z</time>
      </trkpt>
      <trkpt lat="47.79602" lon="6.9418">
        <ele>649.38</ele>
        <time>2016-02-12T12:24:07.000Z</time>
      </trkpt>
      <trkpt lat="47.79612" lon="6.94201">
        <ele>642.34</ele>
        <time>2016-02-12T12:24:25.000Z</time>
      </trkpt>
      <trkpt lat="47.79622" lon="6.94225">
        <ele>638.33</ele>
        <time>2016-02-12T12:24:44.000Z</time>
      </trkpt>
      <trkpt lat="47.79641" lon="6.94262">
        <ele>633.78</ele>
        <time>2016-02-12T12:25:08.000Z</time>
      </trkpt>
      <trkpt lat="47.79656" lon="6.94278">
        <ele>632.48</ele>
        <time>2016-02-12T12:25:24.000Z</time>
      </trkpt>
      <trkpt lat="47.79647" lon="6.94305">
        <ele>632.48</ele>
        <time>2016-02-12T12:27:07.000Z</time>
      </trkpt>
      <trkpt lat="47.79634" lon="6.94316">
        <ele>632.48</ele>
        <time>2016-02-12T12:27:25.000Z</time>
      </trkpt>
      <trkpt lat="47.79626" lon="6.94328">
        <ele>635.56</ele>
        <time>2016-02-12T12:27:44.000Z</time>
      </trkpt>
      <trkpt lat="47.79609" lon="6.94326">
        <ele>638.67</ele>
        <time>2016-02-12T12:28:02.000Z</time>
      </trkpt>
      <trkpt lat="47.79601" lon="6.94332">
        <ele>640.8</ele>
        <time>2016-02-12T12:28:22.000Z</time>
      </trkpt>
      <trkpt lat="47.79609" lon="6.9436">
        <ele>640.8</ele>
        <time>2016-02-12T12:28:55.000Z</time>
      </trkpt>
      <trkpt lat="47.79609" lon="6.94473">
        <ele>639.16</ele>
        <time>2016-02-12T12:30:09.000Z</time>
      </trkpt>
      <trkpt lat="47.79589" lon="6.94539">
        <ele>634.98</ele>
        <time>2016-02-12T12:30:50.000Z</time>
      </trkpt>
      <trkpt lat="47.79583" lon="6.94565">
        <ele>631.86</ele>
        <time>2016-02-12T12:31:07.000Z</time>
      </trkpt>
      <trkpt lat="47.79566" lon="6.94615">
        <ele>626.05</ele>
        <time>2016-02-12T12:31:35.000Z</time>
      </trkpt>
      <trkpt lat="47.79563" lon="6.94635">
        <ele>622.11</ele>
        <time>2016-02-12T12:31:50.000Z</time>
      </trkpt>
      <trkpt lat="47.79546" lon="6.9464">
        <ele>622.11</ele>
        <time>2016-02-12T12:32:10.000Z</time>
      </trkpt>
      <trkpt lat="47.79511" lon="6.94669">
        <ele>622.11</ele>
        <time>2016-02-12T12:32:53.000Z</time>
      </trkpt>
      <trkpt lat="47.79501" lon="6.94669">
        <ele>622.7</ele>
        <time>2016-02-12T12:33:09.000Z</time>
      </trkpt>
      <trkpt lat="47.79489" lon="6.94675">
        <ele>623.21</ele>
        <time>2016-02-12T12:33:24.000Z</time>
      </trkpt>
      <trkpt lat="47.79482" lon="6.94687">
        <ele>623.57</ele>
        <time>2016-02-12T12:33:53.000Z</time>
      </trkpt>
      <trkpt lat="47.79472" lon="6.9469">
        <ele>623.57</ele>
        <time>2016-02-12T12:34:07.000Z</time>
      </trkpt>
      <trkpt lat="47.79437" lon="6.94745">
        <ele>623.57</ele>
        <time>2016-02-12T12:34:57.000Z</time>
      </trkpt>
      <trkpt lat="47.79424" lon="6.94753">
        <ele>618.47</ele>
        <time>2016-02-12T12:35:14.000Z</time>
      </trkpt>
      <trkpt lat="47.79411" lon="6.94766">
        <ele>613.26</ele>
        <time>2016-02-12T12:35:29.000Z</time>
      </trkpt>
      <trkpt lat="47.79412" lon="6.94788">
        <ele>609.57</ele>
        <time>2016-02-12T12:36:05.000Z</time>
      </trkpt>
      <trkpt lat="47.79434" lon="6.94813">
        <ele>599.3</ele>
        <time>2016-02-12T12:37:15.000Z</time>
      </trkpt>
      <trkpt lat="47.79441" lon="6.94863">
        <ele>592.42</ele>
        <time>2016-02-12T12:38:50.000Z</time>
      </trkpt>
      <trkpt lat="47.79438" lon="6.94884">
        <ele>589.3</ele>
        <time>2016-02-12T12:39:00.000Z</time>
      </trkpt>
      <trkpt lat="47.79432" lon="6.949">
        <ele>587.13</ele>
        <time>2016-02-12T12:39:41.000Z</time>
      </trkpt>
      <trkpt lat="47.7943" lon="6.94926">
        <ele>580.38</ele>
        <time>2016-02-12T12:40:07.000Z</time>
      </trkpt>
      <trkpt lat="47.79449" lon="6.94991">
        <ele>565.31</ele>
        <time>2016-02-12T12:41:03.000Z</time>
      </trkpt>
      <trkpt lat="47.79474" lon="6.95047">
        <ele>554.46</ele>
        <time>2016-02-12T12:42:23.000Z</time>
      </trkpt>
      <trkpt lat="47.79501" lon="6.95086">
        <ele>543.7</ele>
        <time>2016-02-12T12:43:12.000Z</time>
      </trkpt>
      <trkpt lat="47.79513" lon="6.95081">
        <ele>540.49</ele>
        <time>2016-02-12T12:43:26.000Z</time>
      </trkpt>
      <trkpt lat="47.79525" lon="6.95081">
        <ele>539.14</ele>
        <time>2016-02-12T12:43:31.000Z</time>
      </trkpt>
      <trkpt lat="47.79538" lon="6.95091">
        <ele>535.85</ele>
        <time>2016-02-12T12:43:44.000Z</time>
      </trkpt>
      <trkpt lat="47.79562" lon="6.95164">
        <ele>526.85</ele>
        <time>2016-02-12T12:44:28.000Z</time>
      </trkpt>
      <trkpt lat="47.79613" lon="6.95261">
        <ele>523.44</ele>
        <time>2016-02-12T12:45:50.000Z</time>
      </trkpt>
      <trkpt lat="47.79625" lon="6.95278">
        <ele>523.17</ele>
        <time>2016-02-12T12:46:03.000Z</time>
      </trkpt>
      <trkpt lat="47.79646" lon="6.95428">
        <ele>519.48</ele>
        <time>2016-02-12T12:47:30.000Z</time>
      </trkpt>
      <trkpt lat="47.79672" lon="6.95502">
        <ele>517.42</ele>
        <time>2016-02-12T12:48:16.000Z</time>
      </trkpt>
      <trkpt lat="47.79703" lon="6.95566">
        <ele>515.31</ele>
        <time>2016-02-12T12:48:56.000Z</time>
      </trkpt>
      <trkpt lat="47.79755" lon="6.95748">
        <ele>510.76</ele>
        <time>2016-02-12T12:50:49.000Z</time>
      </trkpt>
      <trkpt lat="47.79759" lon="6.95806">
        <ele>509.68</ele>
        <time>2016-02-12T12:51:21.000Z</time>
      </trkpt>
      <trkpt lat="47.79745" lon="6.95838">
        <ele>508.69</ele>
        <time>2016-02-12T12:51:58.000Z</time>
      </trkpt>
    </trkseg>
  </trk>
</gpx>